Time;durP1;ratioP1;P1;durP2;ratioP2;P2;SDS_P1;SDS_P2;PMS_P1;PMS_P2;Temp;Humidity;BMP_temperature;BMP_pressure;BME280_temperature;BME280_humidity;BME280_pressure;Samples;Min_cycle;Max_cycle;Signal;HPM_P1;HPM_P2
2023/01/01 00:01:28;;;;;;;30.60;15.13;;;;;;;3.57;70.61;99851.66;5059420;28;20063;-70
2023/01/01 00:03:59;;;;;;;32.67;14.90;;;;;;;3.55;70.54;99851.63;5062921;28;20053;-70
2023/01/01 00:06:26;;;;;;;36.30;16.27;;;;;;;3.54;70.29;99854.25;5060222;28;20418;-70
2023/01/01 00:10:26;;;;;;;35.40;17.70;;;;;;;3.50;70.64;99837.03;5061358;28;20418;-69
2023/01/01 00:11:40;;;;;;;42.70;18.90;;;;;;;3.50;70.32;99837.03;5062282;28;20053;-69
2023/01/01 00:14:07;;;;;;;38.30;19.23;;;;;;;3.40;70.18;99817.31;5054667;28;20060;-69
2023/01/01 00:16:34;;;;;;;39.97;19.40;;;;;;;3.48;70.59;99838.78;5060671;28;20041;-70
2023/01/01 00:19:03;;;;;;;44.72;22.27;;;;;;;3.46;70.28;99828.44;5063475;28;20123;-69
2023/01/01 00:21:30;;;;;;;49.85;21.27;;;;;;;3.43;70.58;99825.03;5064083;28;20056;-70
2023/01/01 00:23:57;;;;;;;45.42;21.58;;;;;;;3.43;70.75;99828.47;5055947;28;20056;-70
2023/01/01 00:26:24;;;;;;;42.65;21.88;;;;;;;3.41;70.43;99827.59;5060648;28;20041;-70
2023/01/01 00:28:51;;;;;;;48.53;23.08;;;;;;;3.40;70.78;99831.06;5060027;28;20499;-70
2023/01/01 00:31:20;;;;;;;50.15;24.30;;;;;;;3.38;70.55;99832.78;5060539;28;21610;-70
2023/01/01 00:33:51;;;;;;;52.40;23.40;;;;;;;3.36;70.58;99835.41;5059532;28;20595;-69
2023/01/01 00:36:21;;;;;;;46.28;24.08;;;;;;;3.33;71.02;99839.69;5060231;28;20063;-70
2023/01/01 00:38:48;;;;;;;48.38;24.73;;;;;;;3.27;70.40;99840.59;5063878;28;20124;-70
2023/01/01 00:41:17;;;;;;;43.95;23.08;;;;;;;3.26;70.97;99851.78;5062029;28;20406;-69
2023/01/01 00:43:44;;;;;;;50.05;24.25;;;;;;;3.25;71.07;99851.78;5061598;28;20051;-70
2023/01/01 00:46:12;;;;;;;56.67;26.17;;;;;;;3.21;71.15;99850.91;5062004;28;20045;-69
2023/01/01 00:48:39;;;;;;;51.80;24.27;;;;;;;3.17;71.24;99841.50;5063724;28;20059;-70
2023/01/01 00:51:06;;;;;;;56.70;24.48;;;;;;;3.19;71.33;99854.38;5064166;28;20044;-69
2023/01/01 00:53:35;;;;;;;49.95;24.75;;;;;;;3.17;71.17;99859.56;5056150;28;20056;-69
2023/01/01 00:56:02;;;;;;;57.50;25.98;;;;;;;3.14;71.01;99855.25;5066312;28;20052;-70
2023/01/01 00:58:29;;;;;;;60.67;26.17;;;;;;;3.12;71.06;99859.56;5067543;28;20052;-70
2023/01/01 01:00:56;;;;;;;50.30;27.25;;;;;;;3.09;71.36;99862.16;5063298;28;20048;-69
2023/01/01 01:03:29;;;;;;;50.88;25.50;;;;;;;3.09;71.10;99869.03;5059392;28;20071;-70
2023/01/01 01:05:58;;;;;;;62.05;26.75;;;;;;;3.06;71.38;99861.31;5065001;28;20041;-70
2023/01/01 01:08:25;;;;;;;57.28;26.08;;;;;;;3.06;71.35;99866.47;5060861;28;20056;-70
2023/01/01 01:10:54;;;;;;;56.58;27.13;;;;;;;3.01;71.26;99869.03;5061333;28;20102;-69
2023/01/01 01:13:21;;;;;;;62.83;27.02;;;;;;;3.03;71.53;99875.06;5064856;28;20490;-69
2023/01/01 01:15:48;;;;;;;53.72;26.67;;;;;;;3.03;71.19;99877.66;5058924;28;20437;-70
2023/01/01 01:18:16;;;;;;;50.72;25.15;;;;;;;3.01;71.67;99866.47;5061864;28;20073;-70
2023/01/01 01:20:51;;;;;;;55.08;24.95;;;;;;;3.02;71.48;99875.09;5066557;28;20167;-69
2023/01/01 01:23:18;;;;;;;;;;;;;;;3.02;71.70;99878.53;5068033;28;20041;-70
2023/01/01 01:25:45;;;;;;;59.60;25.50;;;;;;;3.01;70.92;99883.66;5058865;28;19921;-70
2023/01/01 01:28:13;;;;;;;52.05;23.88;;;;;;;2.97;71.50;99892.28;5063864;28;20055;-69
2023/01/01 01:30:40;;;;;;;57.80;25.30;;;;;;;2.98;70.98;99905.16;5059089;28;20052;-70
2023/01/01 01:33:07;;;;;;;62.30;27.40;;;;;;;2.99;71.35;99901.75;5064722;28;20052;-70
2023/01/01 01:35:34;;;;;;;65.10;26.83;;;;;;;2.99;71.64;99919.81;5057124;28;20474;-70
2023/01/01 01:38:01;;;;;;;50.75;25.10;;;;;;;2.99;71.64;99918.91;5065345;28;20047;-70
2023/01/01 01:40:28;;;;;;;51.80;27.50;;;;;;;2.98;71.24;99930.13;5064023;28;20052;-70
2023/01/01 01:42:55;;;;;;;51.03;24.67;;;;;;;2.96;71.18;99936.97;5062785;28;20051;-70
2023/01/01 01:45:24;;;;;;;61.75;24.63;;;;;;;2.95;71.65;99930.13;5061272;28;20041;-70
2023/01/01 01:47:54;;;;;;;52.15;24.13;;;;;;;2.95;71.58;99937.84;5065244;28;20054;-69
2023/01/01 01:50:26;;;;;;;49.78;24.80;;;;;;;2.90;71.68;99923.25;5062624;28;20538;-70
2023/01/01 01:53:02;;;;;;;47.97;24.90;;;;;;;2.93;71.47;99927.53;5063626;28;20095;-70
2023/01/01 01:55:32;;;;;;;52.28;25.15;;;;;;;2.92;71.33;99936.13;5061000;28;20429;-70
2023/01/01 01:57:59;;;;;;;48.03;23.42;;;;;;;2.91;71.18;99934.44;5063551;28;20048;-69
2023/01/01 02:00:28;;;;;;;50.38;23.92;;;;;;;2.90;71.75;99937.84;5062412;28;20036;-70
2023/01/01 02:02:59;;;;;;;53.47;24.17;;;;;;;2.85;71.22;99930.13;5064456;28;20059;-70
2023/01/01 02:05:27;;;;;;;47.30;22.13;;;;;;;2.87;71.96;99946.44;5063434;28;20067;-69
2023/01/01 02:07:55;;;;;;;56.10;23.95;;;;;;;2.86;71.39;99936.16;5063764;28;20052;-70
2023/01/01 02:10:22;;;;;;;48.50;22.55;;;;;;;2.84;71.86;99946.44;5063902;28;20049;-69
2023/01/01 02:12:49;;;;;;;44.88;22.23;;;;;;;2.84;71.80;99951.59;5061071;28;20045;-70
2023/01/01 02:15:16;;;;;;;45.38;21.75;;;;;;;2.82;71.54;99945.63;5061657;28;20041;-70
2023/01/01 02:17:54;;;;;;;38.53;20.88;;;;;;;2.81;71.84;99949.03;5063367;28;20421;-69
2023/01/01 02:20:34;;;;;;;38.28;19.13;;;;;;;2.78;71.77;99941.28;5063361;28;20036;-70
2023/01/01 02:23:36;;;;;;;40.05;19.15;;;;;;;2.78;71.58;99948.19;5065506;28;20158;-70
2023/01/01 02:26:37;;;;;;;34.13;18.63;;;;;;;2.76;71.98;99960.22;5062312;28;20128;-70
2023/01/01 02:29:12;;;;;;;43.05;19.17;;;;;;;2.73;72.10;99966.22;5063446;28;20052;-69
2023/01/01 02:31:46;;;;;;;38.72;18.30;;;;;;;2.70;71.37;99955.91;5061664;28;20041;-69
2023/01/01 02:34:18;;;;;;;42.40;17.75;;;;;;;2.70;71.90;99967.09;5059692;28;20059;-70
2023/01/01 02:36:50;;;;;;;59.17;16.25;;;;;;;2.70;71.53;99981.69;5061576;28;20049;-69
2023/01/01 02:39:21;;;;;;;37.50;16.02;;;;;;;2.67;72.16;99976.53;5057609;28;20128;-69
2023/01/01 02:41:53;;;;;;;32.67;15.30;;;;;;;2.67;71.63;99976.53;5059497;28;20052;-69
2023/01/01 02:44:23;;;;;;;29.30;14.55;;;;;;;2.67;71.88;99987.69;5060958;28;20406;-70
2023/01/01 02:46:50;;;;;;;32.15;12.95;;;;;;;2.67;72.24;99981.69;5059307;28;20055;-70
2023/01/01 02:49:17;;;;;;;31.88;12.80;;;;;;;2.66;71.74;99986.00;5065397;28;20044;-69
2023/01/01 02:52:01;;;;;;;25.63;12.48;;;;;;;2.68;71.72;99996.31;5060820;28;20434;-69
2023/01/01 02:54:34;;;;;;;24.50;11.07;;;;;;;2.65;71.98;99997.19;5064707;28;20120;-70
2023/01/01 02:57:08;;;;;;;25.58;11.40;;;;;;;2.66;72.17;99992.88;5060765;28;20509;-70
2023/01/01 03:02:40;;;;;;;27.45;12.10;;;;;;;2.65;71.62;99986.00;5061492;28;20497;-69
2023/01/01 03:05:15;;;;;;;27.77;11.63;;;;;;;2.64;72.37;99986.84;5061174;28;20415;-70
2023/01/01 03:07:55;;;;;;;29.17;11.33;;;;;;;2.64;71.99;99989.44;5060645;28;20092;-70
2023/01/01 03:10:29;;;;;;;26.95;10.77;;;;;;;2.62;72.33;99989.44;5063969;28;20285;-69
2023/01/01 03:13:00;;;;;;;26.15;10.25;;;;;;;2.59;72.11;99998.88;5064781;28;20046;-69
2023/01/01 03:15:37;;;;;;;28.38;9.35;;;;;;;2.62;71.96;99996.31;5060488;28;20491;-69
2023/01/01 03:18:12;;;;;;;21.02;9.35;;;;;;;2.59;71.94;100002.34;5062991;28;20083;-69
2023/01/01 03:20:44;;;;;;;29.13;9.88;;;;;;;2.60;71.81;100000.59;5063952;28;20056;-70
2023/01/01 03:23:16;;;;;;;21.13;9.43;;;;;;;2.60;72.52;100005.75;5060994;28;20084;-70
2023/01/01 03:25:48;;;;;;;17.63;8.70;;;;;;;2.60;72.34;100010.94;5061025;28;20057;-69
2023/01/01 03:28:19;;;;;;;24.48;9.30;;;;;;;2.56;72.46;100002.34;5055393;28;20053;-70
2023/01/01 03:30:50;;;;;;;26.08;9.30;;;;;;;2.60;72.19;100010.94;5061099;28;20049;-69
2023/01/01 03:33:23;;;;;;;17.00;8.38;;;;;;;2.60;72.48;100005.75;5058368;28;20047;-69
2023/01/01 03:35:57;;;;;;;22.75;8.57;;;;;;;2.60;71.73;100008.34;5060583;28;20434;-71
2023/01/01 03:38:30;;;;;;;18.13;7.20;;;;;;;2.54;72.48;99998.88;5055649;28;20407;-69
2023/01/01 03:41:03;;;;;;;18.05;7.63;;;;;;;2.59;72.11;100009.19;5056836;28;20728;-70
2023/01/01 03:43:39;;;;;;;28.05;8.57;;;;;;;2.58;72.29;100018.63;5059792;28;20059;-70
2023/01/01 03:46:10;;;;;;;24.95;7.57;;;;;;;2.58;72.29;100020.38;5063148;28;20051;-69
2023/01/01 03:51:24;;;;;;;16.65;6.38;;;;;;;2.53;72.47;100020.34;5063896;28;20059;-69
2023/01/01 03:53:53;;;;;;;14.40;6.82;;;;;;;2.56;71.72;100025.53;5063491;28;20492;-69
2023/01/01 03:56:31;;;;;;;13.27;6.22;;;;;;;2.55;71.74;100030.66;5063407;28;20053;-69
2023/01/01 03:59:05;;;;;;;21.15;7.65;;;;;;;2.54;71.89;100034.97;5060762;28;20075;-70
2023/01/01 04:01:40;;;;;;;24.20;8.27;;;;;;;2.54;71.92;100041.84;5064656;28;20052;-70
2023/01/01 04:04:08;;;;;;;21.33;8.38;;;;;;;2.50;71.87;100043.53;5060781;28;20081;-70
2023/01/01 04:06:35;;;;;;;18.30;7.93;;;;;;;2.51;72.12;100047.00;5059000;28;20052;-70
2023/01/01 04:09:04;;;;;;;17.48;7.82;;;;;;;2.50;71.98;100037.53;5058863;28;20056;-70
2023/01/01 04:14:27;;;;;;;16.98;7.65;;;;;;;2.41;72.36;100041.78;5066033;28;20565;-69
2023/01/01 04:16:56;;;;;;;16.35;6.57;;;;;;;2.45;71.83;100053.84;5060846;28;20053;-69
2023/01/01 04:19:23;;;;;;;21.15;7.72;;;;;;;2.44;72.03;100052.13;5065731;28;20041;-70
2023/01/01 04:21:50;;;;;;;17.92;7.10;;;;;;;2.42;71.94;100059.00;5060072;28;20045;-70
2023/01/01 04:24:16;;;;;;;16.13;7.15;;;;;;;2.43;72.29;100054.72;5063349;28;20055;-70
2023/01/01 04:26:43;;;;;;;14.07;6.00;;;;;;;2.42;72.36;100055.53;5065489;28;20051;-69
2023/01/01 04:29:10;;;;;;;19.92;6.60;;;;;;;2.40;72.46;100052.97;5066366;28;20056;-69
2023/01/01 04:31:37;;;;;;;16.42;6.22;;;;;;;2.40;72.14;100052.13;5067313;28;20131;-69
2023/01/01 04:34:05;;;;;;;20.65;7.20;;;;;;;2.39;71.92;100058.13;5065613;28;20045;-70
2023/01/01 04:36:33;;;;;;;17.45;5.97;;;;;;;2.38;71.76;100064.13;5062654;28;20414;-70
2023/01/01 04:39:00;;;;;;;12.18;5.85;;;;;;;2.35;71.89;100064.97;5062573;28;20123;-69
2023/01/01 04:41:27;;;;;;;17.25;5.75;;;;;;;2.35;71.73;100070.13;5061616;28;20498;-70
2023/01/01 04:43:54;;;;;;;13.52;6.35;;;;;;;2.34;71.58;100070.16;5064778;28;20048;-70
2023/01/01 04:46:22;;;;;;;13.77;5.72;;;;;;;2.33;71.88;100074.41;5062167;28;20059;-70
2023/01/01 04:48:50;;;;;;;16.80;5.22;;;;;;;2.32;71.95;100075.28;5064340;28;20140;-69
2023/01/01 04:51:21;;;;;;;16.95;6.47;;;;;;;2.31;72.43;100071.00;5062115;28;20041;-70
2023/01/01 04:53:47;;;;;;;18.65;4.82;;;;;;;2.30;71.78;100066.66;5064727;28;20045;-69
2023/01/01 04:56:17;;;;;;;13.10;5.03;;;;;;;2.30;72.38;100079.56;5063544;28;20058;-70
2023/01/01 04:58:45;;;;;;;11.05;4.90;;;;;;;2.31;72.08;100077.88;5064035;28;20056;-70
2023/01/01 05:01:16;;;;;;;17.70;5.00;;;;;;;2.29;72.46;100080.44;5063283;28;20044;-69
2023/01/01 05:03:43;;;;;;;17.00;4.78;;;;;;;2.28;71.84;100080.41;5062767;28;20048;-70
2023/01/01 05:06:12;;;;;;;20.70;5.50;;;;;;;2.28;72.04;100090.72;5064766;28;20056;-70
2023/01/01 05:08:43;;;;;;;16.23;5.72;;;;;;;2.26;72.45;100088.16;5064233;28;20079;-69
2023/01/01 05:11:12;;;;;;;14.55;5.53;;;;;;;2.25;71.82;100092.44;5062390;28;20058;-69
2023/01/01 05:13:40;;;;;;;14.70;5.95;;;;;;;2.25;72.69;100086.44;5061535;28;20128;-70
2023/01/01 05:16:09;;;;;;;15.75;5.28;;;;;;;2.24;72.10;100089.84;5065161;28;20067;-70
2023/01/01 05:18:36;;;;;;;14.27;5.25;;;;;;;2.24;72.19;100095.00;5063201;28;20051;-69
2023/01/01 05:21:05;;;;;;;12.48;4.70;;;;;;;2.23;72.48;100088.13;5062828;28;20055;-70
2023/01/01 05:23:32;;;;;;;13.50;3.78;;;;;;;2.22;72.30;100088.97;5062196;28;20495;-70
2023/01/01 05:26:08;;;;;;;13.02;4.50;;;;;;;2.20;72.26;100086.41;5062877;28;20052;-69
2023/01/01 05:28:35;;;;;;;9.52;4.00;;;;;;;2.21;71.86;100095.84;5062167;28;20055;-70
2023/01/01 05:31:06;;;;;;;13.80;4.60;;;;;;;2.17;72.51;100093.28;5061168;28;20051;-70
2023/01/01 05:33:33;;;;;;;9.27;4.07;;;;;;;2.20;71.88;100104.44;5061329;28;20045;-70
2023/01/01 05:36:00;;;;;;;13.98;4.93;;;;;;;2.19;72.46;100096.69;5063964;28;20127;-70
2023/01/01 05:38:27;;;;;;;11.27;3.88;;;;;;;2.19;71.99;100112.16;5063578;28;20049;-70
2023/01/01 05:40:54;;;;;;;10.15;5.22;;;;;;;2.17;71.99;100119.88;5064686;28;20487;-70
2023/01/01 05:43:22;;;;;;;19.23;4.60;;;;;;;2.17;72.51;100119.03;5060541;28;20133;-70
2023/01/01 05:45:49;;;;;;;15.48;5.28;;;;;;;2.01;72.18;100087.16;5060863;28;21015;-70
2023/01/01 05:48:16;;;;;;;15.75;3.95;;;;;;;2.14;72.14;100129.31;5059376;28;20044;-70
2023/01/01 05:50:43;;;;;;;10.93;4.30;;;;;;;2.14;72.08;100135.34;5063225;28;20048;-69
2023/01/01 05:53:10;;;;;;;10.45;3.72;;;;;;;2.14;71.98;100121.59;5064105;28;20645;-70
2023/01/01 05:55:37;;;;;;;12.32;4.55;;;;;;;2.12;72.25;100124.16;5061632;28;20045;-70
2023/01/01 05:58:04;;;;;;;7.57;3.88;;;;;;;2.12;71.91;100123.28;5063481;28;20045;-70
2023/01/01 06:00:32;;;;;;;11.65;4.03;;;;;;;2.11;71.94;100129.31;5064226;28;20050;-70
2023/01/01 06:02:59;;;;;;;11.90;4.22;;;;;;;2.06;72.63;100115.53;5059654;28;20052;-70
2023/01/01 06:05:26;;;;;;;11.93;3.80;;;;;;;2.07;71.91;100125.84;5059817;28;20377;-70
2023/01/01 06:07:53;;;;;;;9.82;3.67;;;;;;;2.09;72.30;100131.00;5061917;28;20044;-70
2023/01/01 06:10:19;;;;;;;8.30;3.88;;;;;;;2.08;72.33;100125.00;5060187;28;20495;-70
2023/01/01 06:12:46;;;;;;;8.15;3.20;;;;;;;2.06;72.40;100125.84;5063792;28;20045;-70
2023/01/01 06:15:13;;;;;;;11.82;3.78;;;;;;;2.06;71.98;100129.28;5061530;28;20048;-70
2023/01/01 06:17:41;;;;;;;13.65;3.40;;;;;;;2.06;72.21;100131.00;5062461;28;20061;-70
2023/01/01 06:20:10;;;;;;;9.88;3.45;;;;;;;2.05;72.53;100137.88;5060910;28;20506;-69
2023/01/01 06:22:37;;;;;;;13.07;3.30;;;;;;;2.05;72.07;100132.72;5060000;28;20045;-71
2023/01/01 06:25:05;;;;;;;8.23;2.65;;;;;;;2.03;72.34;100129.25;5061437;28;20056;-70
2023/01/01 06:27:33;;;;;;;10.20;2.58;;;;;;;2.02;72.00;100130.97;5062909;28;20051;-69
2023/01/01 06:29:59;;;;;;;6.13;3.05;;;;;;;2.03;72.19;100144.72;5063189;28;20135;-70
2023/01/01 06:32:26;;;;;;;5.18;2.58;;;;;;;2.01;72.14;100149.84;5060938;28;20044;-70
2023/01/01 06:34:55;;;;;;;12.85;2.70;;;;;;;2.01;72.45;100154.13;5058971;28;20383;-69
2023/01/01 06:37:22;;;;;;;11.38;2.67;;;;;;;1.99;72.49;100149.00;5059178;28;20045;-70
2023/01/01 06:39:48;;;;;;;14.45;3.08;;;;;;;1.99;72.55;100145.53;5063078;28;20054;-70
2023/01/01 06:42:16;;;;;;;10.25;2.83;;;;;;;1.97;71.97;100144.69;5060426;28;20056;-69
2023/01/01 06:44:42;;;;;;;10.82;3.70;;;;;;;1.96;71.90;100167.00;5061335;28;20387;-70
2023/01/01 06:47:09;;;;;;;12.75;3.67;;;;;;;1.96;72.34;100150.66;5058970;28;20045;-70
2023/01/01 06:49:36;;;;;;;6.60;2.53;;;;;;;1.94;72.77;100153.25;5059967;28;20059;-69
2023/01/01 06:52:05;;;;;;;10.05;2.22;;;;;;;1.94;72.16;100163.56;5062190;28;20049;-70
2023/01/01 06:54:32;;;;;;;15.48;3.67;;;;;;;1.93;72.52;100171.25;5057747;28;20437;-70
2023/01/01 06:56:58;;;;;;;11.80;2.72;;;;;;;1.92;72.34;100169.53;5063982;28;20047;-69
2023/01/01 06:59:25;;;;;;;7.40;2.08;;;;;;;1.91;71.98;100179.00;5061318;28;20401;-70
2023/01/01 07:01:52;;;;;;;6.65;1.75;;;;;;;1.91;72.65;100185.84;5064286;28;20064;-70
2023/01/01 07:04:19;;;;;;;9.93;1.40;;;;;;;1.89;72.47;100188.41;5061078;28;20503;-70
2023/01/01 07:06:46;;;;;;;5.47;1.27;;;;;;;1.88;72.10;100190.94;5060481;28;20406;-70
2023/01/01 07:09:14;;;;;;;3.92;0.82;;;;;;;1.89;72.88;100195.28;5060930;28;20048;-70
2023/01/01 07:11:41;;;;;;;7.03;1.42;;;;;;;1.88;72.60;100202.16;5061331;28;20414;-70
2023/01/01 07:14:08;;;;;;;4.80;1.23;;;;;;;1.85;72.61;100207.28;5061350;28;20047;-69
2023/01/01 07:16:35;;;;;;;5.38;1.33;;;;;;;1.89;72.54;100203.84;5060797;28;20045;-70
2023/01/01 07:19:02;;;;;;;4.32;1.17;;;;;;;1.88;72.81;100198.69;5062807;28;20054;-69
2023/01/01 07:21:31;;;;;;;4.75;1.50;;;;;;;1.86;72.29;100206.41;5056432;28;20421;-69
2023/01/01 07:23:59;;;;;;;8.40;2.63;;;;;;;1.87;72.42;100205.56;5060027;28;20044;-70
2023/01/01 07:26:29;;;;;;;5.22;1.70;;;;;;;1.86;72.66;100206.41;5061509;28;20070;-70
2023/01/01 07:28:56;;;;;;;5.53;1.42;;;;;;;1.86;72.83;100216.72;5060288;28;20726;-69
2023/01/01 07:31:23;;;;;;;3.42;0.68;;;;;;;1.87;72.17;100217.56;5057998;28;20041;-70
2023/01/01 07:33:49;;;;;;;7.60;1.10;;;;;;;1.85;72.71;100220.16;5060226;28;20041;-70
2023/01/01 07:36:17;;;;;;;5.13;1.35;;;;;;;1.84;72.21;100208.09;5060230;28;20409;-70
2023/01/01 07:38:43;;;;;;;5.20;1.23;;;;;;;1.85;72.44;100222.72;5059083;28;20045;-70
2023/01/01 07:41:10;;;;;;;6.03;1.52;;;;;;;1.84;72.21;100223.56;5061277;28;20532;-69
2023/01/01 07:43:39;;;;;;;5.68;0.80;;;;;;;1.83;72.24;100228.72;5069290;28;20041;-69
2023/01/01 07:46:06;;;;;;;5.53;1.00;;;;;;;1.81;72.20;100223.53;5069465;28;20059;-70
2023/01/01 07:48:32;;;;;;;8.43;0.73;;;;;;;1.81;72.62;100218.38;5062245;28;20057;-69
2023/01/01 07:50:59;;;;;;;5.05;1.23;;;;;;;1.79;73.08;100218.38;5071253;28;20048;-70
2023/01/01 07:53:26;;;;;;;5.65;1.00;;;;;;;1.80;72.62;100222.69;5068663;28;20595;-69
2023/01/01 07:55:53;;;;;;;4.10;1.13;;;;;;;1.80;72.60;100229.53;5063000;28;20123;-70
2023/01/01 07:58:21;;;;;;;3.97;1.42;;;;;;;1.77;72.45;100227.81;5067407;28;20384;-69
2023/01/01 08:00:50;;;;;;;3.13;1.17;;;;;;;1.77;72.64;100234.66;5069364;28;20055;-70
2023/01/01 08:03:17;;;;;;;4.50;1.25;;;;;;;1.76;72.18;100235.50;5066815;28;20036;-70
2023/01/01 08:05:44;;;;;;;8.25;1.00;;;;;;;1.73;72.21;100248.34;5067047;28;20057;-70
2023/01/01 08:08:11;;;;;;;2.28;1.30;;;;;;;1.70;72.32;100256.06;5064270;28;20051;-70
2023/01/01 08:10:38;;;;;;;5.22;1.85;;;;;;;1.71;72.63;100262.94;5064196;28;20131;-70
2023/01/01 08:13:07;;;;;;;2.83;0.93;;;;;;;1.69;72.02;100262.06;5068159;28;20046;-70
2023/01/01 08:15:34;;;;;;;5.93;1.92;;;;;;;1.67;72.01;100271.47;5064173;28;20055;-70
2023/01/01 08:18:04;;;;;;;3.28;0.82;;;;;;;1.66;71.89;100280.91;5067969;28;20054;-70
2023/01/01 08:20:33;;;;;;;3.70;1.13;;;;;;;1.64;71.86;100279.16;5065114;28;20064;-70
2023/01/01 08:22:59;;;;;;;3.25;1.05;;;;;;;1.62;72.10;100280.84;5069099;28;20040;-70
2023/01/01 08:25:26;;;;;;;4.40;1.13;;;;;;;1.53;72.29;100263.59;5066958;28;20047;-70
2023/01/01 08:27:53;;;;;;;7.63;1.00;;;;;;;1.56;72.04;100276.50;5068333;28;20044;-70
2023/01/01 08:30:20;;;;;;;2.58;0.70;;;;;;;1.55;72.32;100283.38;5066133;28;20397;-70
2023/01/01 08:32:47;;;;;;;4.35;1.08;;;;;;;1.52;72.47;100288.50;5071073;28;20050;-69
2023/01/01 08:35:15;;;;;;;4.22;1.30;;;;;;;1.49;72.35;100296.19;5067578;28;20601;-69
2023/01/01 08:37:42;;;;;;;2.45;0.73;;;;;;;1.50;72.34;100305.63;5028137;28;20046;-69
2023/01/01 08:40:12;;;;;;;4.78;0.75;;;;;;;1.47;71.85;100308.16;5026585;28;20041;-69
2023/01/01 08:42:39;;;;;;;5.40;0.88;;;;;;;1.47;72.12;100315.03;5025494;28;20046;-70
2023/01/01 08:45:07;;;;;;;6.45;1.13;;;;;;;1.43;71.80;100306.41;5023996;28;20042;-69
2023/01/01 08:47:34;;;;;;;3.60;1.60;;;;;;;1.42;71.82;100321.81;5027409;28;20037;-70
2023/01/01 08:50:01;;;;;;;5.38;1.35;;;;;;;1.39;72.11;100322.66;5030254;28;20132;-70
2023/01/01 08:52:29;;;;;;;4.80;1.08;;;;;;;1.38;71.42;100332.94;5021862;28;20085;-70
2023/01/01 08:54:56;;;;;;;6.90;1.50;;;;;;;1.21;71.67;100314.72;5027261;28;20056;-69
2023/01/01 08:57:23;;;;;;;4.90;1.42;;;;;;;1.31;72.72;100345.75;5023862;28;20042;-69
2023/01/01 08:59:50;;;;;;;3.80;1.17;;;;;;;1.31;72.25;100355.19;5021152;28;20439;-70
2023/01/01 09:02:17;;;;;;;4.90;1.02;;;;;;;1.28;72.52;100352.53;5019947;28;20050;-70
2023/01/01 09:04:44;;;;;;;7.53;1.63;;;;;;;1.26;71.91;100359.41;5024583;28;20124;-69
2023/01/01 09:07:11;;;;;;;4.10;1.30;;;;;;;1.25;72.13;100373.09;5021312;28;20046;-70
2023/01/01 09:09:39;;;;;;;3.17;1.20;;;;;;;1.24;72.19;100379.09;5025400;28;20057;-69
2023/01/01 09:12:08;;;;;;;7.18;1.13;;;;;;;1.21;71.90;100367.03;5023743;28;20451;-70
2023/01/01 09:14:35;;;;;;;3.55;1.02;;;;;;;1.18;72.24;100358.44;5024108;28;20551;-69
2023/01/01 09:17:02;;;;;;;4.72;0.98;;;;;;;1.18;72.29;100376.44;5023594;28;20042;-70
2023/01/01 09:19:29;;;;;;;2.75;1.02;;;;;;;1.16;71.64;100378.13;5023092;28;20540;-70
2023/01/01 09:21:56;;;;;;;3.22;0.80;;;;;;;1.14;72.23;100383.25;5023816;28;20064;-69
2023/01/01 09:24:23;;;;;;;5.03;1.13;;;;;;;1.13;72.28;100386.66;5022273;28;20517;-69
2023/01/01 09:26:52;;;;;;;6.47;1.27;;;;;;;1.06;72.26;100375.44;5021879;28;20145;-70
2023/01/01 09:29:19;;;;;;;2.25;0.90;;;;;;;1.08;72.30;100393.44;5018390;28;20049;-70
2023/01/01 09:31:47;;;;;;;4.80;1.05;;;;;;;1.06;72.16;100400.28;5023527;28;20507;-69
2023/01/01 09:34:14;;;;;;;4.18;1.20;;;;;;;1.04;72.23;100396.81;5022346;28;20052;-70
2023/01/01 09:36:41;;;;;;;6.80;1.17;;;;;;;1.02;72.72;100408.78;5044438;28;20136;-70
2023/01/01 09:39:10;;;;;;;4.53;0.93;;;;;;;1.01;72.47;100415.66;5065095;28;20086;-69
2023/01/01 09:41:52;;;;;;;3.08;1.25;;;;;;;0.99;72.30;100411.31;5065006;28;20052;-70
2023/01/01 09:44:38;;;;;;;8.85;1.65;;;;;;;0.98;71.82;100413.03;5063249;28;20123;-69
2023/01/01 09:47:18;;;;;;;5.72;1.10;;;;;;;0.97;72.74;100416.47;5062640;28;20482;-69
2023/01/01 09:49:47;;;;;;;4.63;1.00;;;;;;;0.98;71.96;100422.47;5058897;28;20051;-69
2023/01/01 09:52:16;;;;;;;2.85;0.70;;;;;;;0.89;72.23;100410.34;5064991;28;20055;-69
2023/01/01 09:54:50;;;;;;;5.45;0.73;;;;;;;0.98;72.03;100423.31;5060681;28;20045;-69
2023/01/01 09:57:17;;;;;;;5.72;1.20;;;;;;;0.98;72.64;100432.75;5064100;28;20094;-69
2023/01/01 09:59:45;;;;;;;4.53;1.00;;;;;;;1.00;72.32;100431.06;5061874;28;20406;-70
2023/01/01 10:02:39;;;;;;;3.97;1.10;;;;;;;1.01;72.53;100431.09;5061019;28;20131;-70
2023/01/01 10:05:21;;;;;;;5.25;1.23;;;;;;;1.01;72.57;100428.50;5060164;28;20052;-69
2023/01/01 10:07:54;;;;;;;4.03;1.27;;;;;;;1.02;72.79;100435.38;5061671;28;20044;-70
2023/01/01 10:10:35;;;;;;;6.18;1.52;;;;;;;1.01;72.98;100433.66;5063871;28;20044;-70
2023/01/01 10:13:15;;;;;;;4.97;1.30;;;;;;;1.01;73.20;100428.50;5061639;28;20047;-70
2023/01/01 10:15:50;;;;;;;3.83;1.10;;;;;;;1.00;72.77;100424.22;5064033;28;20049;-69
2023/01/01 10:18:21;;;;;;;7.32;0.90;;;;;;;1.02;72.47;100430.22;5064622;28;20053;-69
2023/01/01 10:20:58;;;;;;;3.85;0.70;;;;;;;1.01;72.57;100431.09;5061741;28;20045;-70
2023/01/01 10:23:28;;;;;;;2.50;0.98;;;;;;;0.99;72.69;100434.47;5063640;28;20055;-70
2023/01/01 10:25:58;;;;;;;3.63;0.70;;;;;;;1.01;72.54;100453.38;5058125;28;20045;-69
2023/01/01 10:28:34;;;;;;;1.63;0.82;;;;;;;1.01;72.79;100456.78;5065701;28;20040;-69
2023/01/01 10:31:15;;;;;;;3.55;1.20;;;;;;;1.01;73.10;100454.22;5061040;28;20056;-69
2023/01/01 10:33:42;;;;;;;3.42;0.82;;;;;;;1.01;72.78;100443.94;5057807;28;20052;-69
2023/01/01 10:36:13;;;;;;;3.90;0.70;;;;;;;1.02;73.13;100440.50;5065899;28;20414;-70
2023/01/01 10:38:40;;;;;;;4.78;0.82;;;;;;;1.01;72.37;100443.94;5061395;28;20041;-69
2023/01/01 10:41:09;;;;;;;6.43;0.70;;;;;;;1.03;73.22;100452.56;5062382;28;20059;-69
2023/01/01 10:43:37;;;;;;;4.60;0.95;;;;;;;1.03;72.43;100447.41;5063425;28;20153;-69
2023/01/01 10:46:07;;;;;;;3.88;0.80;;;;;;;1.04;72.90;100450.84;5062818;28;20053;-70
2023/01/01 10:48:34;;;;;;;4.45;0.85;;;;;;;1.04;72.83;100449.13;5060092;28;20494;-70
2023/01/01 10:51:04;;;;;;;2.28;0.60;;;;;;;1.05;72.67;100449.97;5056633;28;20049;-69
2023/01/01 10:53:34;;;;;;;3.35;0.63;;;;;;;1.06;72.72;100450.03;5061739;28;20491;-69
2023/01/01 10:56:08;;;;;;;3.97;0.60;;;;;;;1.05;72.97;100461.16;5060436;28;20049;-70
2023/01/01 10:58:41;;;;;;;3.17;0.50;;;;;;;1.06;72.41;100454.31;5059441;28;20046;-69
2023/01/01 11:01:11;;;;;;;4.22;0.80;;;;;;;1.06;72.72;100467.16;5062442;28;20446;-70
2023/01/01 11:03:53;;;;;;;4.57;1.00;;;;;;;1.07;73.50;100469.75;5061158;28;20044;-70
2023/01/01 11:06:22;;;;;;;2.05;0.70;;;;;;;1.05;72.78;100476.59;5057762;28;20127;-69
2023/01/01 11:08:51;;;;;;;5.57;1.02;;;;;;;1.04;72.68;100485.13;5062864;28;20044;-69
2023/01/01 11:11:21;;;;;;;2.22;0.40;;;;;;;1.03;73.32;100478.28;5060864;28;20052;-70
2023/01/01 11:13:51;;;;;;;3.38;0.65;;;;;;;1.02;72.93;100476.53;5061713;28;20049;-70
2023/01/01 11:16:20;;;;;;;2.60;0.98;;;;;;;1.03;73.04;100488.56;5061848;28;20059;-69
2023/01/01 11:18:47;;;;;;;4.55;0.88;;;;;;;1.05;72.86;100493.72;5059380;28;20167;-70
2023/01/01 11:21:21;;;;;;;6.40;1.23;;;;;;;1.02;72.82;100491.94;5062562;28;20527;-69
2023/01/01 11:23:50;;;;;;;3.03;0.60;;;;;;;1.01;73.30;100490.22;5064109;28;20053;-69
2023/01/01 11:26:23;;;;;;;3.95;0.60;;;;;;;1.03;73.24;100492.84;5060425;28;20457;-70
2023/01/01 11:29:02;;;;;;;5.13;0.88;;;;;;;1.00;72.90;100485.94;5063575;28;20123;-69
2023/01/01 11:31:35;;;;;;;5.05;0.57;;;;;;;1.01;73.25;100484.22;5058247;28;20045;-70
2023/01/01 11:34:04;;;;;;;4.07;0.95;;;;;;;0.99;72.81;100494.47;5059810;28;20041;-70
2023/01/01 11:36:33;;;;;;;4.15;1.35;;;;;;;0.94;72.96;100488.44;5055726;28;20055;-70
2023/01/01 11:39:21;;;;;;;2.05;0.85;;;;;;;1.01;73.30;100500.53;5059377;28;20123;-70
2023/01/01 11:41:51;;;;;;;2.33;0.40;;;;;;;1.01;72.72;100494.53;5059416;28;20635;-70
2023/01/01 11:44:29;;;;;;;6.53;0.88;;;;;;;1.01;73.00;100495.38;5057711;28;20492;-70
2023/01/01 11:46:58;;;;;;;2.13;0.57;;;;;;;1.02;73.17;100501.38;5060081;28;20513;-69
2023/01/01 11:49:30;;;;;;;6.65;0.80;;;;;;;1.01;72.85;100499.66;5056922;28;20045;-69